METAR Data
IDs: Format: Raw Decoded Include TAF

Data at: 2256 UTC 29 May 2020

METAR for:KMCW (Mason City Muni, IA, US)
Text:KMCW 292253Z AUTO 32014G20KT 10SM CLR 21/07 A3013 RMK AO2 SLP197 T02060072
Temperature: 20.6°C ( 69°F)
Dewpoint: 7.2°C ( 45°F) [RH = 42%]
Pressure (altimeter):30.13 inches Hg (1020.4 mb) [Sea level pressure: 1019.7 mb]
Winds:from the NW (320 degrees) at 16 MPH (14 knots; 7.2 m/s) gusting to 23 MPH (20 knots; 10.3 m/s)
Visibility:10 or more sm (16+ km)
Ceiling:at least 12,000 feet AGL
Clouds:sky clear below 12,000 feet AGL
QC Flag:automated observation with no human augmentation